createdAt,value
2023-01-27T00:00:58.123Z,10.33
2023-01-27T00:03:25.183Z,8.97
2023-01-27T00:05:52.045Z,9.67
2023-01-27T00:08:18.729Z,8.33
2023-01-27T00:10:45.506Z,8.90
2023-01-27T00:13:32.187Z,10.97
2023-01-27T00:15:59.520Z,8.90
2023-01-27T00:18:26.311Z,9.43
2023-01-27T00:21:11.539Z,9.83
2023-01-27T00:23:57.049Z,9.67
2023-01-27T00:26:23.772Z,9.80
2023-01-27T00:28:50.711Z,8.50
2023-01-27T00:31:36.897Z,10.67
2023-01-27T00:34:10.995Z,10.17
2023-01-27T00:36:40.068Z,9.73
2023-01-27T00:39:10.331Z,8.30
2023-01-27T00:41:37.043Z,8.30
2023-01-27T00:44:05.885Z,7.70
2023-01-27T00:46:34.047Z,8.87
2023-01-27T00:49:00.934Z,6.70
2023-01-27T00:51:27.555Z,8.60
2023-01-27T00:53:54.230Z,10.13
2023-01-27T00:56:21.176Z,8.33
2023-01-27T00:58:48.100Z,7.73
2023-01-27T01:01:16.440Z,8.13
2023-01-27T01:03:44.012Z,8.83
2023-01-27T01:06:12.746Z,10.40
2023-01-27T01:08:39.750Z,9.07
2023-01-27T01:11:08.457Z,9.67
2023-01-27T01:13:35.695Z,10.43
2023-01-27T01:16:11.010Z,9.23
2023-01-27T01:18:38.969Z,9.50
2023-01-27T01:21:09.048Z,9.67
2023-01-27T01:23:40.180Z,9.30
2023-01-27T01:26:07.324Z,9.63
2023-01-27T01:28:34.246Z,9.53
2023-01-27T01:31:09.433Z,8.40
2023-01-27T01:33:36.917Z,10.30
2023-01-27T01:36:08.662Z,11.43
2023-01-27T01:38:35.620Z,8.67
2023-01-27T01:41:02.338Z,9.00
2023-01-27T01:43:28.935Z,9.73
2023-01-27T01:45:58.631Z,8.50
2023-01-27T01:48:52.762Z,7.50
2023-01-27T01:51:31.341Z,10.97
2023-01-27T01:54:08.200Z,9.37
2023-01-27T01:56:42.275Z,8.70
2023-01-27T01:59:12.762Z,9.70
2023-01-27T02:01:39.607Z,7.80
2023-01-27T02:04:12.847Z,10.20
2023-01-27T02:06:59.139Z,8.50
2023-01-27T02:09:28.082Z,9.00
2023-01-27T02:11:55.371Z,8.20
2023-01-27T02:14:22.023Z,8.93
2023-01-27T02:16:48.908Z,8.63
2023-01-27T02:19:27.383Z,10.73
2023-01-27T02:21:56.772Z,8.53
2023-01-27T02:24:32.286Z,10.33
2023-01-27T02:26:59.017Z,10.47
2023-01-27T02:29:25.675Z,8.50
2023-01-27T02:31:52.312Z,8.10
2023-01-27T02:34:24.966Z,9.13
2023-01-27T02:36:56.193Z,8.73
2023-01-27T02:39:33.239Z,9.07
2023-01-27T02:42:01.243Z,10.00
2023-01-27T02:44:28.114Z,11.87
2023-01-27T02:46:55.127Z,11.97
2023-01-27T02:49:21.739Z,10.23
2023-01-27T02:51:48.621Z,9.87
2023-01-27T02:54:15.534Z,10.23
2023-01-27T02:56:42.216Z,11.07
2023-01-27T02:59:09.152Z,11.23
2023-01-27T03:01:36.108Z,14.27
2023-01-27T03:04:02.800Z,10.17
2023-01-27T03:06:29.789Z,10.97
2023-01-27T03:08:56.463Z,11.37
2023-01-27T03:11:41.892Z,12.57
2023-01-27T03:14:08.828Z,11.17
2023-01-27T03:16:54.763Z,12.80
2023-01-27T03:19:21.796Z,11.13
2023-01-27T03:21:52.773Z,12.07
2023-01-27T03:24:20.837Z,10.20
2023-01-27T03:26:47.944Z,9.60
2023-01-27T03:29:33.512Z,10.70
2023-01-27T03:32:00.166Z,11.83
2023-01-27T03:34:27.074Z,10.97
2023-01-27T03:37:12.342Z,11.30
2023-01-27T03:39:58.016Z,10.40
2023-01-27T03:42:43.500Z,11.93
2023-01-27T03:45:29.276Z,10.47
2023-01-27T03:47:56.141Z,8.90
2023-01-27T03:50:31.151Z,9.07
2023-01-27T03:53:04.001Z,10.53
2023-01-27T03:55:32.461Z,9.40
2023-01-27T03:58:14.839Z,9.90
2023-01-27T04:00:41.763Z,8.97
2023-01-27T04:03:27.069Z,10.50
2023-01-27T04:06:12.590Z,10.00
2023-01-27T04:08:42.529Z,8.77
2023-01-27T04:11:29.362Z,11.07
2023-01-27T04:14:01.481Z,9.00
2023-01-27T04:16:30.382Z,8.93
2023-01-27T04:18:57.511Z,8.90
2023-01-27T04:21:25.517Z,9.43
2023-01-27T04:23:55.747Z,8.10
2023-01-27T04:26:22.558Z,10.70
2023-01-27T04:28:50.090Z,9.30
2023-01-27T04:31:17.558Z,9.43
2023-01-27T04:33:45.260Z,8.40
2023-01-27T04:36:15.772Z,8.63
2023-01-27T04:38:42.991Z,6.93
2023-01-27T04:41:10.337Z,10.57
2023-01-27T04:43:37.268Z,8.07
2023-01-27T04:46:04.152Z,9.03
2023-01-27T04:48:31.078Z,8.63
2023-01-27T04:50:57.711Z,8.60
2023-01-27T04:53:24.626Z,7.23
2023-01-27T04:55:51.230Z,11.83
2023-01-27T04:58:18.276Z,12.20
2023-01-27T05:00:45.566Z,9.60
2023-01-27T05:03:12.452Z,10.77
2023-01-27T05:05:39.518Z,11.47
2023-01-27T05:08:09.481Z,10.67
2023-01-27T05:10:36.928Z,9.17
2023-01-27T05:13:04.332Z,8.53
2023-01-27T05:15:31.306Z,11.83
2023-01-27T05:17:57.941Z,10.50
2023-01-27T05:20:24.621Z,12.33
2023-01-27T05:22:52.197Z,10.33
2023-01-27T05:25:18.868Z,11.20
2023-01-27T05:27:45.720Z,11.73
2023-01-27T05:30:14.283Z,12.60
2023-01-27T05:32:40.909Z,10.40
2023-01-27T05:35:08.225Z,10.23
2023-01-27T05:37:34.855Z,10.77
2023-01-27T05:40:01.744Z,11.27
2023-01-27T05:42:28.351Z,10.70
2023-01-27T05:44:54.986Z,12.30
2023-01-27T05:47:21.896Z,12.30
2023-01-27T05:49:48.546Z,12.90
2023-01-27T05:52:15.220Z,10.87
2023-01-27T05:54:42.107Z,11.20
2023-01-27T05:57:08.737Z,10.83
2023-01-27T05:59:35.611Z,11.03
2023-01-27T06:02:02.357Z,12.57
2023-01-27T06:04:29.266Z,10.70
2023-01-27T06:06:55.906Z,8.40
2023-01-27T06:09:22.514Z,11.57
2023-01-27T06:11:49.394Z,12.40
2023-01-27T06:14:16.005Z,14.17
2023-01-27T06:16:43.782Z,10.47
2023-01-27T06:19:10.681Z,12.77
2023-01-27T06:21:37.311Z,14.10
2023-01-27T06:24:04.604Z,12.97
2023-01-27T06:26:31.280Z,12.30
2023-01-27T06:28:58.056Z,10.83
2023-01-27T06:31:25.058Z,10.27
2023-01-27T06:33:52.096Z,14.00
2023-01-27T06:36:20.611Z,10.83
2023-01-27T06:38:49.075Z,11.80
2023-01-27T06:41:16.065Z,12.80
2023-01-27T06:43:42.957Z,10.57
2023-01-27T06:46:09.924Z,11.73
2023-01-27T06:48:38.160Z,9.70
2023-01-27T06:51:05.350Z,12.30
2023-01-27T06:53:32.550Z,13.13
2023-01-27T06:56:01.491Z,10.93
2023-01-27T06:58:28.664Z,10.77
2023-01-27T07:00:55.594Z,13.17
2023-01-27T07:03:22.963Z,10.17
2023-01-27T07:05:49.981Z,12.47
2023-01-27T07:08:16.702Z,11.00
2023-01-27T07:10:43.588Z,13.27
2023-01-27T07:13:12.713Z,9.83
2023-01-27T07:15:39.632Z,11.53
2023-01-27T07:18:06.661Z,11.80
2023-01-27T07:20:41.122Z,13.83
2023-01-27T07:23:09.994Z,12.33
2023-01-27T07:25:36.761Z,8.87
2023-01-27T07:28:03.904Z,11.73
2023-01-27T07:30:30.768Z,14.23
2023-01-27T07:33:07.572Z,11.60
2023-01-27T07:35:36.470Z,9.53
2023-01-27T07:38:03.993Z,13.17
2023-01-27T07:40:30.828Z,10.23
2023-01-27T07:43:01.978Z,6.50
2023-01-27T07:45:29.685Z,7.27
2023-01-27T07:48:07.836Z,9.73
2023-01-27T07:50:35.637Z,8.93
2023-01-27T07:53:04.301Z,9.70
2023-01-27T07:55:32.379Z,10.27
2023-01-27T07:57:59.327Z,9.00
2023-01-27T08:00:26.218Z,7.93
2023-01-27T08:02:54.594Z,8.80
2023-01-27T08:05:22.706Z,8.00
2023-01-27T08:07:50.225Z,7.87
2023-01-27T08:10:18.954Z,6.07
2023-01-27T08:12:46.288Z,7.30
2023-01-27T08:15:13.730Z,6.83
2023-01-27T08:18:09.722Z,6.30
2023-01-27T08:20:36.358Z,7.90
2023-01-27T08:23:03.001Z,8.50
2023-01-27T08:25:29.886Z,6.50
2023-01-27T08:27:56.884Z,7.13
2023-01-27T08:30:24.331Z,6.20
2023-01-27T08:32:51.383Z,7.17
2023-01-27T08:35:18.226Z,7.50
2023-01-27T08:37:48.330Z,6.33
2023-01-27T08:40:15.813Z,7.00
2023-01-27T08:42:42.471Z,6.73
2023-01-27T08:45:09.495Z,6.70
2023-01-27T08:47:36.449Z,6.60
2023-01-27T08:50:03.123Z,7.10
2023-01-27T08:52:30.826Z,5.53
2023-01-27T08:54:58.402Z,6.77
2023-01-27T08:57:25.156Z,5.70
2023-01-27T08:59:52.119Z,7.90
2023-01-27T09:02:20.312Z,6.87
2023-01-27T09:04:47.317Z,6.73
2023-01-27T09:07:14.005Z,6.57
2023-01-27T09:09:40.617Z,6.10
2023-01-27T09:12:07.652Z,6.43
2023-01-27T09:14:34.447Z,5.70
2023-01-27T09:17:01.056Z,6.13
2023-01-27T09:19:27.897Z,7.67
2023-01-27T09:21:54.752Z,5.77
2023-01-27T09:24:21.435Z,4.40
2023-01-27T09:26:48.519Z,4.10
2023-01-27T09:29:39.782Z,5.63
2023-01-27T09:32:09.094Z,4.77
2023-01-27T09:34:36.217Z,5.37
2023-01-27T09:37:07.730Z,5.77
2023-01-27T09:39:40.665Z,4.47
2023-01-27T09:42:27.086Z,5.83
2023-01-27T09:45:26.171Z,5.60
2023-01-27T09:48:22.034Z,4.90
2023-01-27T09:51:03.277Z,5.37
2023-01-27T09:53:46.103Z,7.97
2023-01-27T09:56:28.202Z,5.90
2023-01-27T09:59:21.307Z,6.00
2023-01-27T10:02:24.370Z,5.93
2023-01-27T10:05:14.128Z,5.03
2023-01-27T10:07:59.412Z,6.27
2023-01-27T10:10:44.285Z,5.07
2023-01-27T10:13:21.522Z,6.87
2023-01-27T10:16:13.513Z,6.07
2023-01-27T10:18:49.447Z,5.40
2023-01-27T10:21:35.366Z,5.63
2023-01-27T10:24:13.431Z,7.73
2023-01-27T10:26:48.185Z,6.07
2023-01-27T10:29:45.494Z,5.43
2023-01-27T10:32:42.741Z,5.40
2023-01-27T10:35:15.943Z,6.30
2023-01-27T10:37:55.763Z,5.27
2023-01-27T10:40:47.369Z,5.20
2023-01-27T10:43:35.047Z,8.27
2023-01-27T10:46:24.414Z,6.33
2023-01-27T10:49:31.362Z,5.43
2023-01-27T10:52:26.042Z,7.57
2023-01-27T10:54:58.469Z,6.40
2023-01-27T10:57:39.461Z,5.73
2023-01-27T11:03:43.588Z,7.70
2023-01-27T11:06:17.843Z,5.67
2023-01-27T11:08:55.746Z,6.83
2023-01-27T11:11:43.629Z,6.37
2023-01-27T11:14:22.928Z,5.77
2023-01-27T11:16:53.070Z,6.47
2023-01-27T11:19:27.730Z,5.80
2023-01-27T11:22:06.819Z,5.50
2023-01-27T11:24:45.590Z,7.00
2023-01-27T11:27:34.953Z,4.67
2023-01-27T11:30:24.368Z,4.03
2023-01-27T11:33:09.510Z,4.83
2023-01-27T11:35:36.569Z,5.60
2023-01-27T11:38:15.036Z,4.70
2023-01-27T11:40:44.135Z,6.00
2023-01-27T11:43:17.292Z,5.20
2023-01-27T11:45:46.302Z,4.07
2023-01-27T11:48:16.795Z,4.97
2023-01-27T11:50:44.789Z,5.17
2023-01-27T11:53:22.603Z,5.97
2023-01-27T11:55:56.796Z,6.77
2023-01-27T11:58:39.317Z,4.97
2023-01-27T12:01:15.838Z,5.77
2023-01-27T12:04:06.825Z,7.90
2023-01-27T12:06:59.197Z,6.13
2023-01-27T12:09:33.383Z,7.03
2023-01-27T12:12:15.564Z,7.80
2023-01-27T12:14:52.234Z,8.10
2023-01-27T12:17:45.758Z,7.47
2023-01-27T12:20:45.319Z,7.37
2023-01-27T12:23:25.815Z,6.97
2023-01-27T12:26:01.774Z,8.23
2023-01-27T12:28:50.703Z,8.23
2023-01-27T12:31:31.743Z,8.47
2023-01-27T12:34:08.115Z,10.60
2023-01-27T12:36:40.840Z,8.13
2023-01-27T12:39:28.724Z,9.40
2023-01-27T12:41:55.366Z,7.33
2023-01-27T12:45:09.005Z,8.40
2023-01-27T12:47:35.629Z,11.27
2023-01-27T12:50:22.569Z,9.53
2023-01-27T12:53:08.480Z,11.17
2023-01-27T12:55:40.128Z,24.17
2023-01-27T12:58:24.434Z,12.43
2023-01-27T13:00:51.344Z,10.10
2023-01-27T13:03:20.941Z,9.17
2023-01-27T13:05:48.087Z,11.27
2023-01-27T13:08:18.083Z,10.93
2023-01-27T13:11:00.118Z,11.10
2023-01-27T13:13:29.523Z,10.87
2023-01-27T13:16:14.880Z,8.43
2023-01-27T13:18:42.452Z,13.37
2023-01-27T13:21:35.985Z,11.03
2023-01-27T13:24:10.816Z,11.47
2023-01-27T13:26:39.230Z,12.67
2023-01-27T13:29:09.101Z,11.33
2023-01-27T13:31:59.295Z,10.33
2023-01-27T13:34:49.576Z,11.27
2023-01-27T13:37:43.467Z,13.00
2023-01-27T13:40:17.173Z,12.33
2023-01-27T13:42:56.080Z,12.73
2023-01-27T13:45:40.826Z,11.77
2023-01-27T13:48:16.298Z,14.87
2023-01-27T13:50:50.334Z,14.23
2023-01-27T13:53:19.566Z,9.83
2023-01-27T13:56:20.558Z,13.27
2023-01-27T13:58:49.926Z,11.57
2023-01-27T14:01:38.529Z,13.67
2023-01-27T14:04:20.488Z,13.53
2023-01-27T14:07:10.412Z,14.37
2023-01-27T14:09:53.747Z,11.50
2023-01-27T14:12:55.799Z,14.80
2023-01-27T14:15:44.236Z,10.30
2023-01-27T14:18:20.137Z,12.33
2023-01-27T14:21:05.716Z,12.13
2023-01-27T14:24:01.312Z,12.17
2023-01-27T14:26:43.530Z,10.77
2023-01-27T14:29:41.327Z,13.63
2023-01-27T14:32:23.789Z,14.03
2023-01-27T14:35:22.438Z,11.00
2023-01-27T14:37:55.959Z,13.97
2023-01-27T14:40:54.214Z,10.10
2023-01-27T14:43:58.307Z,14.87
2023-01-27T14:46:50.345Z,14.13
2023-01-27T14:49:41.051Z,13.20
2023-01-27T14:52:31.287Z,10.07
2023-01-27T14:55:31.744Z,20.93
2023-01-27T14:58:27.923Z,10.73
2023-01-27T15:01:17.580Z,12.27
2023-01-27T15:04:25.626Z,9.17
2023-01-27T15:07:07.597Z,10.70
2023-01-27T15:10:03.580Z,12.40
2023-01-27T15:12:36.815Z,19.07
2023-01-27T15:15:21.975Z,18.50
2023-01-27T15:18:23.832Z,12.67
2023-01-27T15:21:22.864Z,22.10
2023-01-27T15:24:01.718Z,10.97
2023-01-27T15:26:30.236Z,19.10
2023-01-27T15:28:58.926Z,8.63
2023-01-27T15:31:28.387Z,12.83
2023-01-27T15:34:04.512Z,13.50
2023-01-27T15:36:34.628Z,25.87
2023-01-27T15:39:10.573Z,9.47
2023-01-27T15:42:12.951Z,11.13
2023-01-27T15:45:00.915Z,20.80
2023-01-27T15:47:33.514Z,28.40
2023-01-27T15:50:08.359Z,9.80
2023-01-27T15:52:47.358Z,8.80
2023-01-27T15:55:30.018Z,15.87
2023-01-27T15:58:17.381Z,10.50
2023-01-27T16:00:51.700Z,9.00
2023-01-27T16:03:43.819Z,8.30
2023-01-27T16:06:21.711Z,7.60
2023-01-27T16:08:56.628Z,9.73
2023-01-27T16:12:01.565Z,6.20
2023-01-27T16:14:40.303Z,7.93
2023-01-27T16:17:17.343Z,6.67
2023-01-27T16:19:55.152Z,7.40
2023-01-27T16:22:26.304Z,9.03
2023-01-27T16:25:03.236Z,12.00
2023-01-27T16:27:33.134Z,13.67
2023-01-27T16:30:20.130Z,12.53
2023-01-27T16:33:03.453Z,9.97
2023-01-27T16:35:38.593Z,5.70
2023-01-27T16:38:20.549Z,7.57
2023-01-27T16:40:58.956Z,7.10
2023-01-27T16:43:34.051Z,14.33
2023-01-27T16:46:01.955Z,5.87
2023-01-27T16:48:48.228Z,16.17
2023-01-27T16:51:19.950Z,7.70
2023-01-27T16:53:55.370Z,7.77
2023-01-27T16:56:30.804Z,7.27
2023-01-27T16:59:19.756Z,6.13
2023-01-27T17:01:49.460Z,5.87
2023-01-27T17:04:27.915Z,12.27
2023-01-27T17:07:13.321Z,6.23
2023-01-27T17:09:42.267Z,5.47
2023-01-27T17:12:46.986Z,5.53
2023-01-27T17:15:24.888Z,6.63
2023-01-27T17:17:52.064Z,6.97
2023-01-27T17:20:32.509Z,4.83
2023-01-27T17:23:00.820Z,6.20
2023-01-27T17:25:37.754Z,5.63
2023-01-27T17:28:11.765Z,11.70
2023-01-27T17:30:41.949Z,7.67
2023-01-27T17:33:16.763Z,12.93
2023-01-27T17:35:50.205Z,29.77
2023-01-27T17:38:24.441Z,8.93
2023-01-27T17:40:55.120Z,5.00
2023-01-27T17:43:21.953Z,10.63
2023-01-27T17:45:50.568Z,6.57
2023-01-27T17:48:17.273Z,6.13
2023-01-27T17:50:45.989Z,4.60
2023-01-27T17:53:13.023Z,5.07
2023-01-27T17:55:39.848Z,4.80
2023-01-27T17:58:11.167Z,4.77
2023-01-27T18:00:44.782Z,7.80
2023-01-27T18:03:26.715Z,5.17
2023-01-27T18:05:54.652Z,9.90
2023-01-27T18:08:23.499Z,4.10
2023-01-27T18:10:51.206Z,4.27
2023-01-27T18:13:17.863Z,5.80
2023-01-27T18:15:47.813Z,5.63
2023-01-27T18:18:30.909Z,5.57
2023-01-27T18:20:57.516Z,4.67
2023-01-27T18:23:28.576Z,7.83
2023-01-27T18:26:16.213Z,5.83
2023-01-27T18:28:43.337Z,7.07
2023-01-27T18:31:18.648Z,6.70
2023-01-27T18:33:46.375Z,3.77
2023-01-27T18:36:24.159Z,3.57
2023-01-27T18:38:51.278Z,4.73
2023-01-27T18:41:32.395Z,3.87
2023-01-27T18:44:02.704Z,3.73
2023-01-27T18:46:29.424Z,4.93
2023-01-27T18:48:56.476Z,7.60
2023-01-27T18:51:23.093Z,3.63
2023-01-27T18:53:50.026Z,4.43
2023-01-27T18:56:17.942Z,4.47
2023-01-27T18:58:44.605Z,5.90
2023-01-27T19:01:18.200Z,5.00
2023-01-27T19:03:44.908Z,5.07
2023-01-27T19:06:16.565Z,4.33
2023-01-27T19:08:43.862Z,6.63
2023-01-27T19:11:15.092Z,8.27
2023-01-27T19:13:46.066Z,5.37
2023-01-27T19:16:16.326Z,4.50
2023-01-27T19:18:44.531Z,4.07
2023-01-27T19:21:16.188Z,4.07
2023-01-27T19:23:47.291Z,5.23
2023-01-27T19:26:19.560Z,5.13
2023-01-27T19:28:49.045Z,3.97
2023-01-27T19:31:16.009Z,3.03
2023-01-27T19:33:45.169Z,5.03
2023-01-27T19:36:24.185Z,5.07
2023-01-27T19:39:02.160Z,6.27
2023-01-27T19:41:28.999Z,4.57
2023-01-27T19:43:55.621Z,4.57
2023-01-27T19:46:23.004Z,5.07
2023-01-27T19:48:49.863Z,5.57
2023-01-27T19:51:17.907Z,4.40
2023-01-27T19:53:45.627Z,4.80
2023-01-27T19:56:23.279Z,4.33
2023-01-27T19:58:52.591Z,4.50
2023-01-27T20:01:20.427Z,4.97
2023-01-27T20:03:47.260Z,3.70
2023-01-27T20:06:29.181Z,4.57
2023-01-27T20:08:59.378Z,5.13
2023-01-27T20:11:41.289Z,4.27
2023-01-27T20:14:13.768Z,6.10
2023-01-27T20:16:41.562Z,4.07
2023-01-27T20:19:08.622Z,4.00
2023-01-27T20:21:35.252Z,5.17
2023-01-27T20:24:02.444Z,3.90
2023-01-27T20:26:32.522Z,4.20
2023-01-27T20:29:24.485Z,5.43
2023-01-27T20:31:51.909Z,4.57
2023-01-27T20:34:18.651Z,4.40
2023-01-27T20:36:45.258Z,3.93
2023-01-27T20:39:12.704Z,4.63
2023-01-27T20:41:39.390Z,3.87
2023-01-27T20:44:06.322Z,4.17
2023-01-27T20:46:32.979Z,4.27
2023-01-27T20:49:00.351Z,3.60
2023-01-27T20:51:27.483Z,4.67
2023-01-27T20:53:54.197Z,3.90
2023-01-27T20:56:23.066Z,4.40
2023-01-27T20:58:50.550Z,3.23
2023-01-27T21:01:19.359Z,5.17
2023-01-27T21:03:46.693Z,4.30
2023-01-27T21:06:15.624Z,4.23
2023-01-27T21:08:45.129Z,4.23
2023-01-27T21:11:13.271Z,5.33
2023-01-27T21:13:39.989Z,4.33
2023-01-27T21:16:07.080Z,4.43
2023-01-27T21:18:34.073Z,5.70
2023-01-27T21:21:02.578Z,5.43
2023-01-27T21:23:29.504Z,4.90
2023-01-27T21:25:56.177Z,3.30
2023-01-27T21:28:23.065Z,5.37
2023-01-27T21:30:49.754Z,4.10
2023-01-27T21:33:17.023Z,5.20
2023-01-27T21:35:43.797Z,4.63
2023-01-27T21:38:11.045Z,6.10
2023-01-27T21:40:40.079Z,4.30
2023-01-27T21:43:27.590Z,5.13
2023-01-27T21:46:02.566Z,5.83
2023-01-27T21:48:29.475Z,4.73
2023-01-27T21:50:56.106Z,5.20
2023-01-27T21:53:23.734Z,5.90
2023-01-27T21:55:50.703Z,5.60
2023-01-27T21:58:17.426Z,5.97
2023-01-27T22:00:44.176Z,6.87
2023-01-27T22:03:12.106Z,5.63
2023-01-27T22:05:41.576Z,7.27
2023-01-27T22:08:08.526Z,8.37
2023-01-27T22:10:35.257Z,7.17
2023-01-27T22:13:04.278Z,5.20
2023-01-27T22:15:31.542Z,6.60
2023-01-27T22:17:59.084Z,7.10
2023-01-27T22:20:26.825Z,6.80
2023-01-27T22:22:53.527Z,7.57
2023-01-27T22:25:20.771Z,7.37
2023-01-27T22:27:47.482Z,7.40
2023-01-27T22:30:18.411Z,7.33
2023-01-27T22:32:46.871Z,9.27
2023-01-27T22:35:16.064Z,7.63
2023-01-27T22:37:43.393Z,5.97
2023-01-27T22:40:11.529Z,9.10
2023-01-27T22:42:40.349Z,10.30
2023-01-27T22:45:10.936Z,8.80
2023-01-27T22:47:37.592Z,7.47
2023-01-27T22:50:04.687Z,8.17
2023-01-27T22:52:31.315Z,7.93
2023-01-27T22:54:57.935Z,9.03
2023-01-27T22:57:30.425Z,7.93
2023-01-27T22:59:58.258Z,7.23
2023-01-27T23:02:29.993Z,10.03
2023-01-27T23:04:57.864Z,8.43
2023-01-27T23:07:25.110Z,9.87
2023-01-27T23:09:52.204Z,10.57
2023-01-27T23:12:19.098Z,10.07
2023-01-27T23:14:45.714Z,10.30
2023-01-27T23:17:12.406Z,8.67
2023-01-27T23:19:39.288Z,9.40
2023-01-27T23:22:05.989Z,13.03
2023-01-27T23:24:33.115Z,9.97
2023-01-27T23:27:00.008Z,11.40
2023-01-27T23:29:28.984Z,9.77
2023-01-27T23:31:55.977Z,13.27
2023-01-27T23:34:23.171Z,9.53
2023-01-27T23:36:50.097Z,11.53
2023-01-27T23:39:17.176Z,11.93
2023-01-27T23:41:44.057Z,8.80
2023-01-27T23:44:12.344Z,11.23
2023-01-27T23:46:38.957Z,10.80
2023-01-27T23:49:05.849Z,11.73
2023-01-27T23:51:32.524Z,11.57
2023-01-27T23:53:59.512Z,10.97
2023-01-27T23:56:26.137Z,11.20
2023-01-27T23:58:52.801Z,12.03
